Estación de Recoleta

Ultimos registro cada 15 minutos 91
Estación Fecha / Hora Temperatura Humedad Lluvia Velocidad Dirección Radiación Presion
91 Recoleta 07-05-2026 22:30 7,9 78,7 0 0 206 0,6 971,9
90 Recoleta 07-05-2026 22:15 8,1 80,5 0 0 204 0,6 971,8
89 Recoleta 07-05-2026 22:00 7,9 78,6 0 0 204 0,6 971,9
88 Recoleta 07-05-2026 21:45 8,2 77,3 0 0 204 0,6 971,7
87 Recoleta 07-05-2026 21:30 8,4 76,3 0 0 204 0,6 972
86 Recoleta 07-05-2026 21:15 8,8 72,5 0 0 204 0,6 971,9
85 Recoleta 07-05-2026 21:00 9,7 69 0 0 204 0,6 971,9
84 Recoleta 07-05-2026 20:45 10,4 65,4 0 0 204 0,6 972,1
83 Recoleta 07-05-2026 20:30 10,5 64,1 0 0 215 0,6 971,9
82 Recoleta 07-05-2026 20:15 11,3 58,8 0 0 234 0,6 972,2
81 Recoleta 07-05-2026 20:00 11,9 56,2 0 0 234 0,6 972
80 Recoleta 07-05-2026 19:45 13,8 49,7 0 0 156 0,6 972,1
79 Recoleta 07-05-2026 19:30 13,2 51,1 0 0 133 0,6 972,1
78 Recoleta 07-05-2026 19:15 14,9 43,3 0 0 128 0,6 972,1
77 Recoleta 07-05-2026 19:00 15,2 39,7 0 0 112 0,6 972,2
76 Recoleta 07-05-2026 18:45 15,1 38,2 0 0 126 0,6 972,2
75 Recoleta 07-05-2026 18:30 17,4 30,2 0 0,3 216 0,6 972
74 Recoleta 07-05-2026 18:15 18 30,3 0 0,7 237 1,9 971,8
73 Recoleta 07-05-2026 18:00 18,3 32,3 0 1 229 5,6 971,8
72 Recoleta 07-05-2026 17:45 19 31,4 0 1,7 268 10,6 971,7
71 Recoleta 07-05-2026 17:30 19,3 30 0 1,7 270 13,1 971,3
70 Recoleta 07-05-2026 17:15 20,4 29,8 0 2 265 16,9 971,6
69 Recoleta 07-05-2026 17:00 21,5 29 0 2 264 48,1 971,4
68 Recoleta 07-05-2026 16:45 22 29 0 1,7 263 46,9 971,2
67 Recoleta 07-05-2026 16:30 22,7 30,1 0 1,7 261 161,9 971,2
66 Recoleta 07-05-2026 16:15 23,5 29,8 0 1 248 23,1 971,3
65 Recoleta 07-05-2026 16:00 23,8 31,9 0 1 225 248,1 971,1
64 Recoleta 07-05-2026 15:45 23,2 32,8 0 1 239 291,9 971,2
63 Recoleta 07-05-2026 15:30 24 32,5 0 1 241 334,4 971,6
62 Recoleta 07-05-2026 15:15 24 31,7 0 1 246 374,4 971,8
61 Recoleta 07-05-2026 15:00 24 32,2 0 1 244 413,1 971,8
60 Recoleta 07-05-2026 14:45 24 33,1 0 1,3 232 448,1 971,8
59 Recoleta 07-05-2026 14:30 23,8 33,5 0 1,3 244 484,4 971,7
58 Recoleta 07-05-2026 14:15 23,8 35,5 0 1 227 514,4 972
57 Recoleta 07-05-2026 14:00 23,7 38,3 0 1 211 540,6 972,2
56 Recoleta 07-05-2026 13:45 23,7 38,8 0 1 240 565,6 972,7
55 Recoleta 07-05-2026 13:30 24,1 40 0 1 248 588,1 972,7
54 Recoleta 07-05-2026 13:15 24,4 42,1 0 1 258 605,6 972,9
53 Recoleta 07-05-2026 13:00 23,5 45,3 0 1 246 616,9 973
52 Recoleta 07-05-2026 12:45 23 48,3 0 1 223 626,9 973,4
51 Recoleta 07-05-2026 12:30 22,1 52,6 0 1 206 635,6 973,4
50 Recoleta 07-05-2026 12:15 22 54,8 0 0,7 194 635,6 973,7
49 Recoleta 07-05-2026 12:00 21,7 56,2 0 0,7 216 636,9 973,8
48 Recoleta 07-05-2026 11:45 21,3 59,8 0 1 161 628,1 974,1
47 Recoleta 07-05-2026 11:30 20,4 62,5 0 1,3 163 614,4 974,1
46 Recoleta 07-05-2026 11:15 19,6 66,5 0 1,3 139 599,4 974,3
45 Recoleta 07-05-2026 11:00 19,3 67,8 0 1 150 546,9 974,5
44 Recoleta 07-05-2026 10:45 18,7 69,6 0 1,3 138 556,9 974,8
43 Recoleta 07-05-2026 10:30 18,8 71,2 0 1 133 530,6 974,9
42 Recoleta 07-05-2026 10:15 18,6 71 0 0,7 124 165,6 975
41 Recoleta 07-05-2026 10:00 18,2 72,7 0 0 112 26,9 975,2
40 Recoleta 07-05-2026 09:45 17,2 74,6 0 0,3 101 25,6 975,1
39 Recoleta 07-05-2026 09:30 17,3 72 0 0 107 26,9 975,2
38 Recoleta 07-05-2026 09:15 17,3 72,2 0 0 118 359,4 975,2
37 Recoleta 07-05-2026 09:00 16,7 73,3 0 0 156 316,9 975,3
36 Recoleta 07-05-2026 08:45 15,7 77,1 0 0 156 271,9 975,1
35 Recoleta 07-05-2026 08:30 14,4 85 0 0 161 224,4 975,3
34 Recoleta 07-05-2026 08:15 11,2 91,2 0 0 161 126,9 975,4
33 Recoleta 07-05-2026 08:00 11,4 90,6 0 0 161 18,1 975,4
32 Recoleta 07-05-2026 07:45 12 92,1 0 0 163 21,9 975,2
31 Recoleta 07-05-2026 07:30 11,9 92,9 0 0 163 3,1 975,1
30 Recoleta 07-05-2026 07:15 11,4 93 0 0 164 0,6 975,1
29 Recoleta 07-05-2026 07:00 11 92,2 0 0 166 0,6 975
28 Recoleta 07-05-2026 06:45 11,9 91,7 0 0 166 0,6 974,7
27 Recoleta 07-05-2026 06:30 12,3 91,8 0 0 166 0,6 974,7
26 Recoleta 07-05-2026 06:15 12,5 91,6 0 0 177 0,6 974,6
25 Recoleta 07-05-2026 06:00 12,5 91,2 0 0 178 0,6 974,5
24 Recoleta 07-05-2026 05:45 12,5 90,8 0 0 188 0,6 974,4
23 Recoleta 07-05-2026 05:30 12,7 91,2 0 0 192 0,6 974,2
22 Recoleta 07-05-2026 05:15 12,5 91,6 0 0 199 0,6 974,2
21 Recoleta 07-05-2026 05:00 12,6 92,2 0 0,3 159 0,6 974,1
20 Recoleta 07-05-2026 04:45 12,9 92,9 0 0 166 0,6 973,9
19 Recoleta 07-05-2026 04:30 13,2 93,3 0 0 167 0,6 974
18 Recoleta 07-05-2026 04:15 13,5 93,4 0 0 149 0,6 973,9
17 Recoleta 07-05-2026 04:00 13,7 93,3 0 0 147 0,6 973,7
16 Recoleta 07-05-2026 03:45 13,8 93,6 0 0 146 0,6 973,8
15 Recoleta 07-05-2026 03:30 13,9 93,5 0 0 146 0,6 973,7
14 Recoleta 07-05-2026 03:15 13,9 93,6 0 0 146 0,6 973,8
13 Recoleta 07-05-2026 03:00 14 93,8 0 0 146 0,6 973,9
12 Recoleta 07-05-2026 02:45 13,8 93,9 0 0 146 0,6 974,1
11 Recoleta 07-05-2026 02:30 13,7 93,8 0 0 146 0,6 974,1
10 Recoleta 07-05-2026 02:15 13,6 93,6 0 0 146 0,6 974
9 Recoleta 07-05-2026 02:00 13,7 93,3 0 0 146 0,6 974,2
8 Recoleta 07-05-2026 01:45 13,8 92,8 0 0 149 0,6 974,1
7 Recoleta 07-05-2026 01:30 14,1 92,4 0 0 153 0,6 974
6 Recoleta 07-05-2026 01:15 14,1 92,1 0 0 157 0,6 974,2
5 Recoleta 07-05-2026 01:00 14,3 91,5 0 0,3 164 0,6 973,9
4 Recoleta 07-05-2026 00:45 14,3 91,5 0 0 152 0,6 974
3 Recoleta 07-05-2026 00:30 14,3 91,4 0 0 145 0,6 974
2 Recoleta 07-05-2026 00:15 14,2 91,2 0 0 153 0,6 974
1 Recoleta 07-05-2026 00:00 14,3 90,7 0 0 160 0,6 973,9